Time;durP1;ratioP1;P1;durP2;ratioP2;P2;SDS_P1;SDS_P2;PMS_P1;PMS_P2;Temp;Humidity;BMP_temperature;BMP_pressure;BME280_temperature;BME280_humidity;BME280_pressure;Samples;Min_cycle;Max_cycle;Signal;HPM_P1;HPM_P2
2021/07/10 00:00:26;;;;;;;8.23;2.85;;;;;;;19.52;46.43;98778.22;5090758;28;20047;-91
2021/07/10 00:02:52;;;;;;;4.25;2.40;;;;;;;19.36;45.78;98762.16;5092637;28;20105;-89
2021/07/10 00:05:17;;;;;;;4.55;2.40;;;;;;;19.51;45.73;98785.47;5093052;28;20042;-90
2021/07/10 00:07:44;;;;;;;5.38;2.60;;;;;;;19.35;46.64;98769.41;5094154;28;20036;-90
2021/07/10 00:10:15;;;;;;;3.58;2.50;;;;;;;19.35;47.32;98790.97;5093000;28;20044;-90
2021/07/10 00:12:41;;;;;;;8.73;2.65;;;;;;;19.33;46.93;98794.72;5091889;28;20044;-89
2021/07/10 00:15:10;;;;;;;5.22;2.22;;;;;;;19.11;47.98;98779.03;5092101;28;20036;-89
2021/07/10 00:17:36;;;;;;;;;;;;;;;19.21;47.33;98796.34;5094370;28;20063;-90
2021/07/10 00:20:03;;;;;;;3.42;2.35;;;;;;;18.98;46.98;98763.59;5091941;28;19967;-89
2021/07/10 00:22:29;;;;;;;5.03;2.20;;;;;;;19.15;46.97;98789.53;5092236;28;20561;-89
2021/07/10 00:24:54;;;;;;;4.88;2.30;;;;;;;19.10;47.05;98772.75;5092606;28;20119;-91
2021/07/10 00:27:22;;;;;;;5.85;2.13;;;;;;;19.08;47.11;98770.16;5093089;28;20041;-90
2021/07/10 00:29:48;;;;;;;3.65;2.10;;;;;;;18.98;47.74;98773.53;5092272;28;20086;-90
2021/07/10 00:32:14;;;;;;;8.20;2.28;;;;;;;18.84;48.06;98760.88;5090631;28;20036;-90
2021/07/10 00:34:40;;;;;;;7.78;2.45;;;;;;;18.94;48.07;98777.38;5093275;28;20040;-89
2021/07/10 00:37:06;;;;;;;5.25;2.22;;;;;;;18.94;47.98;98778.22;5094105;28;20054;-90
2021/07/10 00:39:32;;;;;;;5.15;2.15;;;;;;;19.08;47.85;98774.66;5092617;28;20561;-90
2021/07/10 00:41:57;;;;;;;5.03;2.30;;;;;;;18.88;47.79;98752.50;5097866;28;20044;-91
2021/07/10 00:44:25;;;;;;;4.03;1.98;;;;;;;19.02;48.26;98775.94;5098587;28;20551;-91
2021/07/10 00:46:50;;;;;;;4.05;2.38;;;;;;;18.95;48.49;98763.78;5092913;28;20036;-90
2021/07/10 00:49:17;;;;;;;4.45;2.35;;;;;;;19.06;48.75;98777.47;5095898;28;20089;-90
2021/07/10 00:51:43;;;;;;;4.00;2.15;;;;;;;18.94;49.52;98767.44;5095344;28;20093;-90
2021/07/10 00:54:09;;;;;;;4.97;2.50;;;;;;;18.91;49.53;98762.25;5095745;28;20047;-90
2021/07/10 00:56:36;;;;;;;3.15;2.20;;;;;;;18.91;49.98;98761.38;5095483;28;20062;-90
2021/07/10 00:59:02;;;;;;;9.02;2.35;;;;;;;18.93;50.28;98773.78;5094969;28;20040;-90
2021/07/10 01:01:30;;;;;;;6.10;2.30;;;;;;;18.89;49.26;98758.78;5094704;28;20036;-90
2021/07/10 01:03:56;;;;;;;4.43;2.40;;;;;;;18.90;49.51;98760.50;5095210;28;20043;-90
2021/07/10 01:06:22;;;;;;;4.30;2.38;;;;;;;18.80;49.37;98745.84;5096474;28;20024;-91
2021/07/10 01:08:48;;;;;;;5.28;2.50;;;;;;;18.79;49.72;98758.47;5097048;28;20035;-90
2021/07/10 01:11:14;;;;;;;4.22;2.30;;;;;;;18.91;50.09;98778.44;5094615;28;20036;-90
2021/07/10 01:13:40;;;;;;;6.80;2.50;;;;;;;18.83;50.29;98773.50;5092293;28;20080;-91
2021/07/10 01:16:06;;;;;;;6.32;2.55;;;;;;;18.81;50.16;98771.84;5092894;28;20036;-91
2021/07/10 01:18:34;;;;;;;6.03;2.42;;;;;;;18.74;50.12;98754.31;5094034;28;20437;-91
2021/07/10 01:21:02;;;;;;;4.05;2.45;;;;;;;18.71;50.72;98762.56;5093457;28;20509;-93
2021/07/10 01:23:27;;;;;;;4.53;2.72;;;;;;;18.55;51.13;98752.72;5093259;28;20127;-91
2021/07/10 01:25:54;;;;;;;5.00;2.90;;;;;;;18.56;51.00;98759.81;5095807;28;21337;-90
2021/07/10 01:28:20;;;;;;;7.20;2.92;;;;;;;18.46;51.50;98753.25;5092698;28;20064;-92
2021/07/10 01:30:47;;;;;;;4.30;2.33;;;;;;;18.43;51.66;98746.25;5093628;28;20043;-92
2021/07/10 01:33:13;;;;;;;6.32;2.25;;;;;;;18.61;51.35;98765.81;5094010;28;20105;-91
2021/07/10 01:35:40;;;;;;;4.72;2.40;;;;;;;18.60;51.57;98758.66;5093779;28;20058;-91
2021/07/10 01:38:09;;;;;;;4.75;2.20;;;;;;;18.51;52.07;98753.84;5095057;28;20040;-90
2021/07/10 01:40:36;;;;;;;4.05;2.22;;;;;;;18.41;52.07;98741.88;5094898;28;20040;-90
2021/07/10 01:43:04;;;;;;;4.80;2.45;;;;;;;18.46;51.54;98751.44;5094412;28;20070;-90
2021/07/10 01:45:30;;;;;;;5.93;2.63;;;;;;;18.37;52.34;98746.59;5092608;28;20071;-89
2021/07/10 01:47:57;;;;;;;6.07;2.53;;;;;;;18.44;52.51;98756.03;5094456;28;20036;-92
2021/07/10 01:50:23;;;;;;;6.20;2.50;;;;;;;18.41;52.12;98749.97;5094289;28;20032;-91
2021/07/10 01:52:50;;;;;;;6.10;2.60;;;;;;;18.41;51.86;98760.72;5096036;28;20032;-91
2021/07/10 01:55:17;;;;;;;4.95;2.70;;;;;;;18.27;51.99;98727.41;5095946;28;20051;-90
2021/07/10 01:57:45;;;;;;;6.60;2.60;;;;;;;18.38;52.07;98745.63;5094169;28;20039;-91
2021/07/10 02:00:14;;;;;;;9.80;2.97;;;;;;;18.37;52.39;98745.75;5092592;28;20505;-91
2021/07/10 02:02:42;;;;;;;3.65;2.55;;;;;;;18.40;52.51;98751.78;5093898;28;20074;-91
2021/07/10 02:05:08;;;;;;;6.32;2.70;;;;;;;18.34;52.91;98762.91;5092035;28;20067;-91
2021/07/10 02:07:34;;;;;;;6.80;2.55;;;;;;;18.24;53.38;98743.75;5093252;28;20040;-91
2021/07/10 02:10:00;;;;;;;7.40;2.88;;;;;;;18.26;52.74;98749.94;5094166;28;20489;-91
2021/07/10 02:12:28;;;;;;;6.32;2.63;;;;;;;18.27;52.52;98738.19;5093962;28;20040;-91
2021/07/10 02:14:53;;;;;;;6.28;2.58;;;;;;;18.21;52.84;98738.53;5093991;28;20043;-91
2021/07/10 02:17:19;;;;;;;4.90;2.63;;;;;;;17.98;53.05;98717.53;5093897;28;20050;-92
2021/07/10 02:19:45;;;;;;;4.82;2.45;;;;;;;18.13;53.30;98737.25;5094542;28;20038;-91
2021/07/10 02:22:11;;;;;;;6.65;2.72;;;;;;;18.17;53.11;98736.13;5093976;28;20301;-91
2021/07/10 02:24:37;;;;;;;6.43;2.70;;;;;;;18.11;53.77;98732.00;5090710;28;20063;-90
2021/07/10 02:27:03;;;;;;;6.50;2.80;;;;;;;18.08;54.49;98729.47;5093190;28;20032;-90
2021/07/10 02:29:30;;;;;;;4.32;2.50;;;;;;;17.99;54.08;98720.09;5093381;28;20123;-90
2021/07/10 02:31:57;;;;;;;4.65;2.50;;;;;;;18.01;54.02;98720.03;5091943;28;20042;-92
2021/07/10 02:34:22;;;;;;;4.80;2.47;;;;;;;18.05;54.10;98729.66;5094622;28;20523;-91
2021/07/10 02:36:48;;;;;;;3.63;2.67;;;;;;;17.96;54.34;98717.59;5094966;28;20130;-91
2021/07/10 02:39:14;;;;;;;4.65;2.55;;;;;;;18.04;54.08;98726.09;5095903;28;20040;-91
2021/07/10 02:41:40;;;;;;;4.53;2.50;;;;;;;18.03;54.28;98707.34;5095487;28;20043;-90
2021/07/10 02:44:06;;;;;;;5.40;2.45;;;;;;;18.07;54.25;98714.28;5094301;28;20036;-91
2021/07/10 02:46:33;;;;;;;5.50;2.70;;;;;;;18.04;54.72;98718.03;5091952;28;20045;-90
2021/07/10 02:48:59;;;;;;;7.68;2.60;;;;;;;17.92;54.65;98704.41;5095798;28;20722;-92
2021/07/10 02:51:25;;;;;;;7.45;2.95;;;;;;;17.99;55.64;98732.69;5096319;28;20036;-91
2021/07/10 02:53:53;;;;;;;5.53;2.40;;;;;;;17.82;56.09;98722.91;5092597;28;20520;-90
2021/07/10 02:56:19;;;;;;;6.57;2.70;;;;;;;17.89;55.48;98724.31;5094642;28;20044;-91
2021/07/10 02:58:46;;;;;;;4.97;2.65;;;;;;;17.88;55.04;98732.44;5093776;28;20280;-91
2021/07/10 03:01:12;;;;;;;4.75;2.42;;;;;;;17.76;55.92;98729.47;5091804;28;20046;-91
2021/07/10 03:03:39;;;;;;;4.75;2.50;;;;;;;17.66;55.57;98722.88;5093072;28;20036;-92
2021/07/10 03:06:05;;;;;;;5.25;2.65;;;;;;;17.62;56.96;98738.31;5094147;28;20086;-90
2021/07/10 03:08:31;;;;;;;4.93;2.60;;;;;;;17.49;56.90;98720.28;5093965;28;20036;-90
2021/07/10 03:10:57;;;;;;;5.70;2.80;;;;;;;17.44;57.03;98732.16;5094125;28;20131;-91
2021/07/10 03:13:23;;;;;;;3.97;2.60;;;;;;;17.37;57.60;98728.09;5093840;28;20389;-92
2021/07/10 03:15:49;;;;;;;3.80;2.40;;;;;;;17.42;57.09;98739.44;5091540;28;20085;-90
2021/07/10 03:18:15;;;;;;;6.20;2.60;;;;;;;17.34;56.87;98722.00;5091252;28;20040;-91
2021/07/10 03:20:42;;;;;;;5.68;2.90;;;;;;;17.32;56.57;98719.38;5095478;28;20044;-92
2021/07/10 03:23:08;;;;;;;6.15;2.88;;;;;;;17.37;56.56;98733.47;5095826;28;20083;-91
2021/07/10 03:25:34;;;;;;;6.18;2.85;;;;;;;17.45;56.83;98750.00;5093460;28;20139;-91
2021/07/10 03:28:00;;;;;;;6.43;2.53;;;;;;;17.43;56.80;98733.09;5094231;28;20050;-90
2021/07/10 03:30:27;;;;;;;4.15;2.60;;;;;;;17.47;57.25;98743.69;5091267;28;20089;-91
2021/07/10 03:32:53;;;;;;;6.05;2.60;;;;;;;17.40;57.26;98744.03;5093537;28;20559;-90
2021/07/10 03:35:20;;;;;;;4.50;2.70;;;;;;;17.45;57.44;98741.94;5093476;28;20040;-92
2021/07/10 03:37:49;;;;;;;4.57;3.00;;;;;;;17.42;57.69;98736.75;5094764;28;20040;-91
2021/07/10 03:40:17;;;;;;;7.03;3.03;;;;;;;17.36;57.34;98734.41;5094014;28;20410;-91
2021/07/10 03:42:43;;;;;;;4.65;2.55;;;;;;;17.34;57.45;98728.22;5094952;28;20036;-90
2021/07/10 03:45:11;;;;;;;4.78;2.63;;;;;;;17.38;57.73;98748.63;5092722;28;20508;-92
2021/07/10 03:47:37;;;;;;;5.40;3.00;;;;;;;17.26;58.23;98730.47;5093117;28;20048;-91
2021/07/10 03:50:03;;;;;;;5.35;2.50;;;;;;;17.19;58.53;98729.94;5093076;28;20043;-90
2021/07/10 03:52:29;;;;;;;4.50;2.40;;;;;;;17.28;58.44;98739.31;5093176;28;20075;-90
2021/07/10 03:54:56;;;;;;;7.63;2.60;;;;;;;17.29;58.29;98735.69;5093437;28;20036;-91
2021/07/10 03:57:22;;;;;;;6.00;2.53;;;;;;;17.42;58.11;98752.88;5095022;28;20026;-91
2021/07/10 03:59:48;;;;;;;5.68;2.45;;;;;;;17.32;58.12;98740.88;5094363;28;20037;-91
2021/07/10 04:02:14;;;;;;;5.63;3.10;;;;;;;17.29;58.50;98746.44;5091837;28;20146;-90
2021/07/10 04:04:39;;;;;;;9.07;2.70;;;;;;;17.37;58.64;98754.97;5094842;28;20044;-91
2021/07/10 04:07:05;;;;;;;6.57;2.78;;;;;;;17.38;58.83;98743.25;5093715;28;20032;-90
2021/07/10 04:09:31;;;;;;;6.53;2.80;;;;;;;17.33;58.66;98744.47;5092990;28;20044;-90
2021/07/10 04:11:58;;;;;;;4.63;2.58;;;;;;;17.43;58.95;98759.97;5092525;28;20036;-90
2021/07/10 04:14:25;;;;;;;5.43;2.70;;;;;;;17.30;59.46;98747.31;5090715;28;20121;-90
2021/07/10 04:16:51;;;;;;;6.20;2.60;;;;;;;17.24;59.57;98738.63;5090625;28;20048;-91
2021/07/10 04:19:17;;;;;;;4.78;2.83;;;;;;;17.37;59.37;98746.91;5094203;28;20048;-90
2021/07/10 04:21:43;;;;;;;4.18;2.75;;;;;;;17.38;59.56;98745.94;5094055;28;20071;-91
2021/07/10 04:24:09;;;;;;;4.55;2.75;;;;;;;17.36;60.01;98736.22;5092469;28;20036;-91
2021/07/10 04:26:34;;;;;;;4.05;2.70;;;;;;;17.45;59.68;98741.94;5093040;28;20042;-91
2021/07/10 04:29:02;;;;;;;5.20;2.70;;;;;;;17.50;60.23;98751.56;5092817;28;20505;-91
2021/07/10 04:31:28;;;;;;;5.97;2.88;;;;;;;17.43;60.39;98735.78;5090679;28;20046;-91
2021/07/10 04:33:54;;;;;;;6.03;3.17;;;;;;;17.50;60.59;98744.41;5093341;28;20509;-90
2021/07/10 04:36:19;;;;;;;5.97;3.25;;;;;;;17.49;60.11;98737.28;5093153;28;20044;-90
2021/07/10 04:38:45;;;;;;;7.00;3.17;;;;;;;17.54;59.48;98743.25;5093699;28;20119;-91
2021/07/10 04:41:11;;;;;;;6.50;2.92;;;;;;;17.60;59.31;98732.16;5092732;28;20089;-91
2021/07/10 04:43:37;;;;;;;6.95;3.80;;;;;;;17.71;59.38;98745.00;5092764;28;20564;-92
2021/07/10 04:46:04;;;;;;;5.05;3.90;;;;;;;17.65;59.72;98726.50;5092214;28;20040;-91
2021/07/10 04:48:30;;;;;;;6.85;3.90;;;;;;;17.64;59.57;98731.03;5094102;28;20525;-91
2021/07/10 04:50:56;;;;;;;7.88;5.05;;;;;;;17.72;59.38;98744.06;5092435;28;20068;-92
2021/07/10 04:53:22;;;;;;;6.53;3.88;;;;;;;17.67;59.91;98732.66;5092686;28;20066;-91
2021/07/10 04:55:48;;;;;;;8.93;4.13;;;;;;;17.84;59.58;98747.88;5094171;28;20047;-92
2021/07/10 04:58:14;;;;;;;8.45;5.43;;;;;;;17.98;58.89;98747.13;5093822;28;20048;-91
2021/07/10 05:00:40;;;;;;;5.57;3.10;;;;;;;18.26;57.42;98741.84;5090116;28;20039;-90
2021/07/10 05:03:07;;;;;;;10.93;3.53;;;;;;;18.35;57.78;98736.88;5093972;28;20032;-91
2021/07/10 05:05:33;;;;;;;4.85;2.90;;;;;;;18.92;55.76;98746.94;5093789;28;20835;-91
2021/07/10 05:08:01;;;;;;;4.97;2.88;;;;;;;19.74;54.33;98734.63;5092490;28;20131;-91
2021/07/10 05:10:27;;;;;;;5.72;2.92;;;;;;;20.42;52.04;98731.81;5091293;28;20415;-91
2021/07/10 05:12:53;;;;;;;6.75;2.83;;;;;;;20.98;49.97;98734.31;5092225;28;20054;-91
2021/07/10 05:15:19;;;;;;;4.50;2.60;;;;;;;21.61;47.74;98737.09;5087592;28;20046;-91
2021/07/10 05:17:45;;;;;;;6.75;3.05;;;;;;;22.18;46.29;98727.47;5092258;28;20041;-90
2021/07/10 05:20:13;;;;;;;5.53;2.70;;;;;;;22.67;45.84;98735.44;5092500;28;20047;-93
2021/07/10 05:22:40;;;;;;;5.20;2.77;;;;;;;23.00;44.84;98736.53;5092802;28;20549;-91
2021/07/10 05:25:07;;;;;;;6.13;2.97;;;;;;;23.25;44.62;98749.03;5092403;28;20439;-90
2021/07/10 05:27:33;;;;;;;5.47;2.83;;;;;;;23.57;43.96;98746.44;5095289;28;20036;-91
2021/07/10 05:29:59;;;;;;;4.78;2.53;;;;;;;23.76;43.61;98744.97;5094237;28;20554;-92
2021/07/10 05:32:25;;;;;;;4.97;2.92;;;;;;;23.99;42.46;98733.06;5096368;28;20044;-90
2021/07/10 05:34:51;;;;;;;8.63;3.05;;;;;;;24.07;42.33;98745.16;5095741;28;20529;-92
2021/07/10 05:37:18;;;;;;;3.92;2.70;;;;;;;23.94;42.06;98751.63;5096550;28;20040;-92
2021/07/10 05:39:44;;;;;;;9.07;3.05;;;;;;;23.73;41.83;98739.75;5097220;28;20089;-92
2021/07/10 05:42:10;;;;;;;5.88;3.00;;;;;;;23.86;41.90;98742.38;5095879;28;20040;-91
2021/07/10 05:44:36;;;;;;;9.45;3.13;;;;;;;24.03;41.91;98732.81;5095815;28;20054;-91
2021/07/10 05:47:02;;;;;;;7.45;2.90;;;;;;;24.18;41.82;98737.84;5093261;28;20040;-92
2021/07/10 05:49:28;;;;;;;7.13;3.33;;;;;;;24.29;41.26;98734.22;5095660;28;20043;-92
2021/07/10 05:51:54;;;;;;;6.75;2.90;;;;;;;24.40;41.06;98731.47;5095611;28;20044;-91
2021/07/10 05:54:21;;;;;;;7.03;3.05;;;;;;;24.07;40.42;98724.31;5097025;28;20050;-90
2021/07/10 05:56:47;;;;;;;11.15;3.30;;;;;;;23.64;41.81;98738.66;5097015;28;20036;-91
2021/07/10 05:59:13;;;;;;;8.75;3.50;;;;;;;23.82;41.29;98746.31;5095088;28;20043;-91
2021/07/10 06:01:38;;;;;;;8.18;2.92;;;;;;;23.83;42.04;98732.59;5093217;28;20089;-91
2021/07/10 06:04:04;;;;;;;6.70;2.97;;;;;;;23.85;41.63;98718.91;5095342;28;20040;-88
2021/07/10 06:06:30;;;;;;;5.35;2.97;;;;;;;23.96;41.24;98727.91;5095191;28;20036;-91
2021/07/10 06:08:56;;;;;;;9.90;3.42;;;;;;;23.92;40.98;98731.88;5094594;28;20436;-91
2021/07/10 06:11:23;;;;;;;7.10;3.05;;;;;;;23.97;41.08;98718.75;5095446;28;20044;-92
2021/07/10 06:13:49;;;;;;;5.07;3.00;;;;;;;24.09;41.51;98733.16;5092779;28;20036;-92
2021/07/10 06:16:17;;;;;;;5.78;3.33;;;;;;;24.21;40.77;98728.56;5093575;28;20417;-91
2021/07/10 06:18:43;;;;;;;12.23;3.67;;;;;;;24.31;40.49;98731.34;5096153;28;20047;-92
2021/07/10 06:21:08;;;;;;;7.00;3.25;;;;;;;24.60;40.40;98729.78;5094806;28;20281;-93
2021/07/10 06:23:34;;;;;;;7.00;3.13;;;;;;;24.73;40.67;98721.44;5095013;28;20055;-91
2021/07/10 06:26:00;;;;;;;8.13;3.30;;;;;;;24.76;40.23;98728.47;5097154;28;20107;-92
2021/07/10 06:28:28;;;;;;;6.97;3.05;;;;;;;24.94;39.86;98723.28;5096605;28;20555;-91
2021/07/10 06:30:56;;;;;;;8.02;3.00;;;;;;;24.76;39.68;98736.63;5095766;28;20068;-91
2021/07/10 06:33:22;;;;;;;9.88;3.22;;;;;;;24.77;40.59;98722.91;5097070;28;20040;-92
2021/07/10 06:35:48;;;;;;;10.48;3.20;;;;;;;24.99;39.92;98738.22;5095821;28;20032;-91
2021/07/10 06:38:13;;;;;;;7.60;3.15;;;;;;;25.02;39.59;98731.63;5095638;28;20508;-90
2021/07/10 06:40:39;;;;;;;4.57;2.95;;;;;;;24.98;40.00;98741.94;5096951;28;20036;-90
2021/07/10 06:43:05;;;;;;;7.30;2.90;;;;;;;24.95;39.65;98719.56;5096087;28;20066;-91
2021/07/10 06:45:32;;;;;;;9.43;3.15;;;;;;;25.07;39.72;98733.94;5093519;28;20070;-91
2021/07/10 06:48:01;;;;;;;11.05;3.25;;;;;;;25.15;38.89;98751.31;5095614;28;20040;-91
2021/07/10 06:50:28;;;;;;;10.70;3.00;;;;;;;24.76;39.67;98748.34;5093148;28;20048;-92
2021/07/10 06:52:54;;;;;;;7.78;3.60;;;;;;;24.73;40.33;98750.50;5094288;28;20397;-92
2021/07/10 06:55:20;;;;;;;7.40;2.97;;;;;;;24.99;41.25;98732.78;5095318;28;20123;-91
2021/07/10 06:57:46;;;;;;;6.10;3.25;;;;;;;25.28;40.19;98725.78;5095197;28;20032;-91
2021/07/10 07:00:14;;;;;;;8.15;3.00;;;;;;;25.48;39.67;98727.63;5093196;28;20036;-92
2021/07/10 07:02:42;;;;;;;9.13;3.65;;;;;;;25.73;39.58;98737.16;5097481;28;20044;-93
2021/07/10 07:05:09;;;;;;;8.32;3.40;;;;;;;26.00;39.20;98736.56;5097175;28;20059;-92
2021/07/10 07:07:35;;;;;;;5.10;3.20;;;;;;;26.03;38.62;98740.84;5097175;28;20039;-92
2021/07/10 07:10:02;;;;;;;7.40;3.45;;;;;;;25.96;39.11;98742.44;5096671;28;20040;-91
2021/07/10 07:12:34;;;;;;;4.80;2.85;;;;;;;26.13;39.00;98749.03;5095096;28;20536;-92
2021/07/10 07:15:05;;;;;;;7.57;3.25;;;;;;;26.22;38.53;98742.75;5092865;28;20039;-91
2021/07/10 07:17:33;;;;;;;7.43;3.10;;;;;;;26.34;38.37;98738.03;5090473;28;20093;-89
2021/07/10 07:20:01;;;;;;;6.15;3.05;;;;;;;26.61;38.13;98737.34;5094683;28;20504;-91
2021/07/10 07:22:26;;;;;;;6.93;3.00;;;;;;;26.68;37.67;98727.59;5096405;28;20552;-91
2021/07/10 07:24:52;;;;;;;6.05;3.10;;;;;;;26.84;37.45;98725.09;5094985;28;20078;-92
2021/07/10 07:27:18;;;;;;;7.82;3.28;;;;;;;27.04;37.10;98722.34;5095655;28;20058;-92
2021/07/10 07:29:50;;;;;;;8.75;3.45;;;;;;;27.09;36.74;98710.97;5096412;28;20048;-90
2021/07/10 07:32:16;;;;;;;6.88;3.28;;;;;;;27.12;37.27;98706.09;5090268;28;20043;-92
2021/07/10 07:34:47;;;;;;;9.15;3.53;;;;;;;27.38;37.01;98719.13;5094442;28;20105;-93
2021/07/10 07:37:15;;;;;;;8.30;2.85;;;;;;;26.66;37.95;98724.13;5093709;28;20147;-92
2021/07/10 07:39:41;;;;;;;8.52;3.35;;;;;;;27.00;38.38;98723.63;5091399;28;20069;-92
2021/07/10 07:42:09;;;;;;;6.45;3.47;;;;;;;27.38;37.03;98727.31;5094917;28;20489;-92
2021/07/10 07:44:36;;;;;;;7.45;3.40;;;;;;;27.64;36.24;98716.56;5094339;28;20040;-91
2021/07/10 07:47:02;;;;;;;12.52;3.60;;;;;;;27.88;36.05;98699.63;5097837;28;20121;-94
2021/07/10 07:49:28;;;;;;;7.85;3.30;;;;;;;27.80;35.04;98705.84;5093688;28;20032;-92
2021/07/10 07:51:54;;;;;;;8.30;3.30;;;;;;;27.88;35.74;98690.56;5093762;28;20401;-91
2021/07/10 07:54:22;;;;;;;7.82;3.30;;;;;;;28.17;35.20;98710.38;5094954;28;20040;-92
2021/07/10 07:56:48;;;;;;;9.50;3.53;;;;;;;28.47;34.73;98710.97;5096025;28;20036;-94
2021/07/10 07:59:16;;;;;;;6.45;3.30;;;;;;;28.50;34.35;98696.16;5095893;28;20044;-91
2021/07/10 08:01:42;;;;;;;4.97;3.35;;;;;;;28.75;34.60;98703.56;5092342;28;20540;-92
2021/07/10 08:04:08;;;;;;;8.70;3.40;;;;;;;28.90;33.85;98690.16;5094589;28;20501;-92
2021/07/10 08:06:34;;;;;;;9.75;3.95;;;;;;;28.57;34.14;98689.91;5093210;28;20044;-92
2021/07/10 08:09:00;;;;;;;10.10;3.50;;;;;;;28.91;33.47;98707.44;5093869;28;20036;-92
2021/07/10 08:11:27;;;;;;;6.65;3.53;;;;;;;28.70;33.35;98699.59;5095201;28;20492;-92
2021/07/10 08:13:53;;;;;;;5.63;3.45;;;;;;;28.73;34.07;98686.44;5095101;28;20047;-91
2021/07/10 08:16:19;;;;;;;6.97;3.78;;;;;;;28.82;33.05;98685.50;5092294;28;20040;-93
2021/07/10 08:18:44;;;;;;;8.52;3.20;;;;;;;29.23;33.66;98702.22;5094377;28;20044;-93
2021/07/10 08:21:10;;;;;;;11.05;3.70;;;;;;;29.35;32.84;98675.41;5093870;28;20036;-93
2021/07/10 08:23:36;;;;;;;8.18;2.90;;;;;;;29.33;32.54;98682.94;5093607;28;20049;-93
2021/07/10 08:26:02;;;;;;;9.93;3.58;;;;;;;29.22;32.64;98680.47;5093580;28;20160;-92
2021/07/10 08:28:30;;;;;;;10.57;3.42;;;;;;;28.86;33.20;98695.13;5094713;28;20055;-91
2021/07/10 08:30:56;;;;;;;6.68;3.58;;;;;;;28.88;33.19;98693.03;5091976;28;20402;-90
2021/07/10 08:33:22;;;;;;;7.75;3.30;;;;;;;28.84;33.87;98679.84;5092512;28;20039;-91
2021/07/10 08:35:50;;;;;;;6.30;3.42;;;;;;;29.31;32.83;98695.91;5094946;28;20074;-92
2021/07/10 08:38:16;;;;;;;9.85;3.00;;;;;;;29.67;32.40;98685.66;5095201;28;20097;-92
2021/07/10 08:40:42;;;;;;;7.20;3.15;;;;;;;30.00;31.44;98693.16;5095956;28;20040;-91
2021/07/10 08:43:12;;;;;;;6.28;2.80;;;;;;;30.13;31.15;98685.28;5095233;28;20036;-92
2021/07/10 08:45:45;;;;;;;6.03;2.28;;;;;;;30.12;30.14;98675.34;5093433;28;20454;-92
2021/07/10 08:48:12;;;;;;;6.50;2.50;;;;;;;29.81;29.27;98678.69;5094073;28;20127;-92
2021/07/10 08:50:38;;;;;;;5.97;2.10;;;;;;;30.10;29.85;98677.38;5094183;28;20086;-90
2021/07/10 08:53:04;;;;;;;4.93;2.85;;;;;;;30.22;29.25;98666.97;5094477;28;20486;-92
2021/07/10 08:55:30;;;;;;;3.03;1.83;;;;;;;30.34;27.74;98662.91;5095637;28;20127;-91
2021/07/10 08:57:57;;;;;;;4.80;2.40;;;;;;;29.88;29.08;98673.41;5095414;28;20499;-90
2021/07/10 09:00:26;;;;;;;3.47;2.13;;;;;;;29.71;29.25;98666.16;5093442;28;20509;-92
2021/07/10 09:02:55;;;;;;;4.32;2.28;;;;;;;29.94;28.51;98672.75;5096932;28;20047;-92
2021/07/10 09:05:21;;;;;;;4.38;2.00;;;;;;;29.60;28.04;98670.91;5099385;28;20066;-92
2021/07/10 09:11:19;;;;;;;3.47;2.40;;;;;;;29.47;28.88;98678.69;5128570;27;20124;-94
2021/07/10 09:17:12;;;;;;;4.40;2.30;;;;;;;29.70;28.96;98679.00;5036985;27;2460879;-90
2021/07/10 09:19:41;;;;;;;4.85;2.30;;;;;;;30.20;27.99;98678.09;5099105;28;20048;-91
2021/07/10 09:22:07;;;;;;;3.10;2.10;;;;;;;30.64;28.34;98672.34;5103509;28;20037;-91
2021/07/10 09:24:36;;;;;;;4.55;2.47;;;;;;;30.23;28.03;98658.56;5100456;28;20152;-92
2021/07/10 09:27:05;;;;;;;5.95;2.80;;;;;;;29.94;27.41;98658.19;5110171;28;20048;-93
2021/07/10 09:29:37;;;;;;;4.90;2.17;;;;;;;30.29;26.25;98671.63;5110737;28;20044;-92
2021/07/10 09:32:06;;;;;;;4.55;2.30;;;;;;;30.77;26.79;98668.19;5104527;28;20059;-92
2021/07/10 09:37:38;;;;;;;2.80;2.25;;;;;;;30.20;27.07;98667.13;5133841;27;20876;-91
2021/07/10 09:40:07;;;;;;;6.65;2.10;;;;;;;29.81;27.63;98669.63;5132038;27;20071;-92
2021/07/10 09:42:35;;;;;;;3.70;2.20;;;;;;;30.29;26.16;98651.56;5134355;28;20456;-92
2021/07/10 09:45:04;;;;;;;3.20;2.05;;;;;;;30.55;25.09;98645.06;5133954;27;20031;-93
2021/07/10 09:47:31;;;;;;;;;;;;;;;30.95;25.79;98657.03;5132336;27;20067;-93
2021/07/10 09:49:58;;;;;;;4.05;2.15;;;;;;;31.13;26.60;98654.94;5132634;27;19926;-92
2021/07/10 09:52:25;;;;;;;5.00;2.10;;;;;;;31.16;25.70;98653.75;5132554;27;20035;-92
2021/07/10 09:54:54;;;;;;;2.58;2.03;;;;;;;31.28;24.50;98660.59;5132949;27;20096;-93
2021/07/10 09:57:25;;;;;;;3.45;2.40;;;;;;;31.38;25.81;98644.75;5132240;27;20477;-93
2021/07/10 09:59:53;;;;;;;5.28;2.33;;;;;;;31.75;24.34;98639.59;5129931;28;20043;-93
2021/07/10 10:02:21;;;;;;;;;;;;;;;31.86;23.51;98648.31;5132448;27;20039;-91
2021/07/10 10:04:47;;;;;;;;;;;;;;;32.08;23.88;98640.31;5131828;28;20018;-92
2021/07/10 10:07:15;;;;;;;3.30;2.25;;;;;;;32.13;23.74;98627.72;5134150;27;19954;-92
2021/07/10 10:09:42;;;;;;;2.70;1.80;;;;;;;32.31;20.82;98632.03;5133745;27;20039;-93
2021/07/10 10:15:10;;;;;;;2.40;2.00;;;;;;;31.49;22.55;98627.91;5163729;27;20358;-91
2021/07/10 10:17:37;;;;;;;4.03;2.20;;;;;;;30.98;24.03;98616.38;5140738;27;20043;-91
2021/07/10 10:20:04;;;;;;;3.15;2.10;;;;;;;31.27;24.58;98623.13;5142136;27;20320;-91
2021/07/10 10:22:31;;;;;;;3.38;2.08;;;;;;;31.75;24.22;98628.59;5143589;27;20041;-93
2021/07/10 10:24:57;;;;;;;3.60;2.50;;;;;;;31.60;24.75;98618.41;5144188;27;20102;-91
2021/07/10 10:27:23;;;;;;;4.88;2.78;;;;;;;31.53;24.81;98611.88;5147357;27;20063;-90
2021/07/10 10:29:54;;;;;;;4.35;2.30;;;;;;;31.92;24.55;98608.22;5146626;27;20038;-91
2021/07/10 10:32:22;;;;;;;2.92;2.10;;;;;;;32.03;23.19;98582.22;5140296;27;20039;-91
2021/07/10 10:34:50;;;;;;;4.07;2.10;;;;;;;32.04;23.24;98594.97;5140421;27;20047;-89
2021/07/10 10:37:16;;;;;;;;;;;;;;;31.88;24.60;98605.00;5146178;27;20560;-90
2021/07/10 10:39:42;;;;;;;4.10;2.35;;;;;;;31.17;23.24;98612.38;5138560;27;19924;-90
2021/07/10 10:42:17;;;;;;;3.70;2.35;;;;;;;31.05;23.43;98584.41;5146088;27;20548;-90
2021/07/10 10:44:44;;;;;;;4.63;2.05;;;;;;;31.41;22.20;98599.56;5147254;27;20070;-91
2021/07/10 10:47:11;;;;;;;3.63;1.90;;;;;;;31.75;22.85;98592.88;5143166;27;20043;-93
2021/07/10 10:49:42;;;;;;;3.23;2.37;;;;;;;32.24;22.24;98587.06;5145614;27;20163;-91
2021/07/10 10:52:27;;;;;;;3.55;2.10;;;;;;;32.47;22.49;98587.88;5139226;27;21015;-92
2021/07/10 10:54:55;;;;;;;2.92;1.98;;;;;;;31.92;23.46;98598.09;5143379;27;20035;-92
2021/07/10 10:57:33;;;;;;;3.92;2.08;;;;;;;31.60;23.11;98582.66;5142192;27;20393;-92
2021/07/10 11:00:00;;;;;;;3.80;2.22;;;;;;;31.89;23.45;98583.84;5136418;27;20047;-94
2021/07/10 11:02:55;;;;;;;4.15;2.40;;;;;;;32.12;22.48;98587.50;5150607;27;20035;-91
2021/07/10 11:05:56;;;;;;;3.40;2.10;;;;;;;32.08;22.34;98579.81;5150273;27;20039;-93
2021/07/10 11:08:51;;;;;;;3.25;2.30;;;;;;;32.30;23.00;98573.41;5061395;28;20479;-92
2021/07/10 11:11:33;;;;;;;4.82;2.85;;;;;;;32.03;21.57;98563.84;5055247;28;20069;-93
2021/07/10 11:14:07;;;;;;;2.95;2.08;;;;;;;31.69;22.36;98573.31;5058149;28;20048;-92
2021/07/10 11:16:33;;;;;;;3.55;2.13;;;;;;;32.17;22.08;98564.09;5055439;28;20053;-90
2021/07/10 11:19:01;;;;;;;3.58;2.35;;;;;;;32.42;22.08;98568.34;5055071;28;20049;-91
2021/07/10 11:21:44;;;;;;;3.15;2.10;;;;;;;32.07;22.29;98573.41;5052074;28;20045;-91
2021/07/10 11:24:25;;;;;;;5.88;2.35;;;;;;;31.41;21.21;98563.84;5060462;28;20128;-91
2021/07/10 11:27:21;;;;;;;2.65;2.00;;;;;;;31.32;22.30;98572.13;5048080;28;20061;-91
2021/07/10 11:29:47;;;;;;;3.63;2.10;;;;;;;31.31;21.20;98558.56;5047551;28;20046;-92
2021/07/10 11:32:19;;;;;;;3.22;2.10;;;;;;;31.12;21.67;98551.59;5047411;28;20430;-92
2021/07/10 11:34:46;;;;;;;2.80;2.08;;;;;;;31.50;22.24;98565.53;5046359;28;20060;-94
2021/07/10 11:37:15;;;;;;;4.18;2.10;;;;;;;31.73;21.80;98568.34;5045066;28;20049;-92
2021/07/10 11:39:56;;;;;;;4.45;2.28;;;;;;;32.18;22.03;98560.28;5047112;28;20137;-90
2021/07/10 11:42:48;;;;;;;3.97;2.20;;;;;;;32.13;22.16;98544.31;5090355;27;20048;-93
2021/07/10 11:45:32;;;;;;;4.60;2.20;;;;;;;31.95;20.79;98558.38;5123619;27;20047;-90
2021/07/10 11:48:23;;;;;;;6.97;2.30;;;;;;;32.08;21.20;98541.28;5126431;27;20039;-91